Royal Prince — WCX8037 — position and weather

sailwx.info

Track history (hours):
 
Tides and Currents Weather Stations Pressure Air Temp Water Temp Dewpoint Dewpoint Depression Visibility Wind Speed Wind Dir Waves Ship Positions

Royal Prince

Owner: Golden Gate Scenic Steamship Corp, SAN FRANCISCO, CA. More information available from US FCC via Universal Licensing System and Coast Guard Vessel Documentation Center.

Last reported at 2017-Jan-19 00:14 UTC. Time now 2017-Jan-19 10:54 UTC.
Position N 37°49' W 122°25'.

; draft 3 m.

Type: Passenger vessel. MMSI: 366975760.

Date/timePositionNaut miles runAvg speedWind from/ knotsBaromVisibWave heightAir tempDewpointWater temp
2017-Jan-19 00:14N 37°49' W 122°25'0 0.0
2017-Jan-18 23:33N 37°49' W 122°25'0 0.0
2017-Jan-18 22:33N 37°49' W 122°25'0 0.0
2017-Jan-18 21:33N 37°49' W 122°25'0 0.0
2017-Jan-18 20:33N 37°49' W 122°25'2 2.5
2017-Jan-18 19:33N 37°49' W 122°28'0 0.2
2017-Jan-18 18:33N 37°49' W 122°28'3 2.6
2017-Jan-18 17:33N 37°49' W 122°25'0 0.0
2017-Jan-18 16:33N 37°49' W 122°25'0 0.0
2017-Jan-18 15:33N 37°49' W 122°25'0 0.0
2017-Jan-18 14:32N 37°49' W 122°25'0 0.0
2017-Jan-18 00:33N 37°49' W 122°25'0 0.4
2017-Jan-17 23:33N 37°49' W 122°25'0 0.0
2017-Jan-17 22:33N 37°49' W 122°25'3 3.1
2017-Jan-17 21:33N 37°49' W 122°29'3 3.0
2017-Jan-17 20:33N 37°49' W 122°25'2 2.3
2017-Jan-17 19:33N 37°49' W 122°28'1 0.8
2017-Jan-17 18:33N 37°49' W 122°29'3 0.2
2017-Jan-17 03:33N 37°49' W 122°25'1 1.4
2017-Jan-17 02:33N 37°49' W 122°23'1 1.4
2017-Jan-17 01:34N 37°49' W 122°25'1 1.1
2017-Jan-17 00:34N 37°50' W 122°25'1 1.1
2017-Jan-16 23:34N 37°49' W 122°25'0 0.0
2017-Jan-16 22:33N 37°49' W 122°25'3 3.1
2017-Jan-16 21:34N 37°49' W 122°29'3 3.1
2017-Jan-16 20:33N 37°49' W 122°25'2 2.3
2017-Jan-16 19:34N 37°49' W 122°28'1 0.9
2017-Jan-16 18:33N 37°49' W 122°27'2 0.1
2017-Jan-16 03:33N 37°49' W 122°25'1 1.0
2017-Jan-16 02:33N 37°49' W 122°24'1 1.0
2017-Jan-16 01:33N 37°49' W 122°25'1 1.4
2017-Jan-16 00:33N 37°50' W 122°26'1 1.4
2017-Jan-15 23:33N 37°49' W 122°25'0 0.1
2017-Jan-15 22:33N 37°49' W 122°25'3 2.9
2017-Jan-15 21:33N 37°49' W 122°29'3 2.9
2017-Jan-15 20:33N 37°49' W 122°25'2 2.2
2017-Jan-15 19:34N 37°49' W 122°28'1 0.8
2017-Jan-15 18:33N 37°49' W 122°27'2 1.9
2017-Jan-15 17:33N 37°49' W 122°25'0 0.0
2017-Jan-15 03:31N 37°49' W 122°25'1 1.3
2017-Jan-15 02:33N 37°49' W 122°23'1 1.3
2017-Jan-15 01:33N 37°49' W 122°25'1 1.3
2017-Jan-15 00:34N 37°50' W 122°25'1 1.4
2017-Jan-14 23:33N 37°49' W 122°25'0 0.0
2017-Jan-14 22:33N 37°49' W 122°25'3 3.0
2017-Jan-14 21:33N 37°49' W 122°29'3 3.0
2017-Jan-14 20:33N 37°49' W 122°25'2 2.0
2017-Jan-14 19:33N 37°49' W 122°27'1 1.1
2017-Jan-14 18:33N 37°50' W 122°26'2 1.6
2017-Jan-14 17:33N 37°49' W 122°25'0 0.0
2017-Jan-14 03:33N 37°49' W 122°25'0 0.0
2017-Jan-13 23:33N 37°49' W 122°25'0 0.2
2017-Jan-13 22:33N 37°49' W 122°25'3 2.7
2017-Jan-13 21:33N 37°49' W 122°28'3 2.8
2017-Jan-13 20:33N 37°49' W 122°25'2 2.5
2017-Jan-13 19:33N 37°49' W 122°28'2 2.5
2017-Jan-13 18:33N 37°49' W 122°25'0 0.0
2017-Jan-13 17:33N 37°49' W 122°25'0 0.0
2017-Jan-13 03:33N 37°49' W 122°25'2 2.2
2017-Jan-13 02:34N 37°48' W 122°22'2 2.2
2017-Jan-13 01:33N 37°49' W 122°25'1 1.0
2017-Jan-13 00:33N 37°50' W 122°25'1 1.0
2017-Jan-12 23:33N 37°49' W 122°25'0 0.1
2017-Jan-12 22:33N 37°49' W 122°25'3 2.9
2017-Jan-12 21:34N 37°49' W 122°29'3 2.9
2017-Jan-12 20:34N 37°49' W 122°25'0 0.0
2017-Jan-12 19:33N 37°49' W 122°25'2 1.6
2017-Jan-12 18:34N 37°50' W 122°26'2 1.5
2017-Jan-12 17:33N 37°49' W 122°25'1 0.0
2017-Jan-12 00:33N 37°49' W 122°25'1 0.7
2017-Jan-11 23:33N 37°49' W 122°25'0 0.1
2017-Jan-11 22:33N 37°49' W 122°25'3 2.8
2017-Jan-11 21:33N 37°49' W 122°28'3 2.8
2017-Jan-11 20:33N 37°49' W 122°25'3 2.8
2017-Jan-11 19:33N 37°49' W 122°28'0 0.4
2017-Jan-11 18:33N 37°49' W 122°29'3 0.2
2017-Jan-11 00:33N 37°49' W 122°24'1 0.9
2017-Jan-10 23:34N 37°49' W 122°25'0 0.0
2017-Jan-10 22:34N 37°49' W 122°25'3 2.9
2017-Jan-10 21:33N 37°49' W 122°29'3 2.9
2017-Jan-10 20:33N 37°49' W 122°25'0 0.0
2017-Jan-10 19:34N 37°49' W 122°25'0 0.0
2017-Jan-10 18:32N 37°49' W 122°25'0 0.0
2017-Jan-10 03:31N 37°49' W 122°25'3 2.7
2017-Jan-10 02:33N 37°48' W 122°22'3 2.6
2017-Jan-10 01:33N 37°49' W 122°25'0 0.0
2017-Jan-10 00:33N 37°49' W 122°25'0 0.0
2017-Jan-09 23:33N 37°49' W 122°25'0 0.1
2017-Jan-09 22:33N 37°49' W 122°25'3 3.1
2017-Jan-09 21:33N 37°49' W 122°29'3 3.1
2017-Jan-09 20:33N 37°49' W 122°25'2 2.5
2017-Jan-09 19:33N 37°49' W 122°28'1 1.0
2017-Jan-09 18:33N 37°50' W 122°27'2 1.9
2017-Jan-09 17:33N 37°49' W 122°25'0 0.0
2017-Jan-09 03:32N 37°49' W 122°25'2 2.3
2017-Jan-09 02:33N 37°48' W 122°22'2 2.3
2017-Jan-09 01:33N 37°49' W 122°25'0 0.1
2017-Jan-09 00:34N 37°49' W 122°25'  
Track history (hours):
 
Tides and Currents Weather Stations Pressure Air Temp Water Temp Dewpoint Dewpoint Depression Visibility Wind Speed Wind Dir Waves Ship Positions

Royal Prince

Owner: Golden Gate Scenic Steamship Corp, SAN FRANCISCO, CA. More information available from US FCC via Universal Licensing System and Coast Guard Vessel Documentation Center.

Last reported at 2017-Jan-19 00:14 UTC. Time now 2017-Jan-19 10:54 UTC.
Position N 37°49' W 122°25'.

; draft 3 m.

Type: Passenger vessel. MMSI: 366975760.

Date/timePositionNaut miles runAvg speedWind from/ knotsBaromVisibWave heightAir tempDewpointWater temp
2017-Jan-19 00:14N 37°49' W 122°25'0 0.0
2017-Jan-18 23:33N 37°49' W 122°25'0 0.0
2017-Jan-18 22:33N 37°49' W 122°25'0 0.0
2017-Jan-18 21:33N 37°49' W 122°25'0 0.0
2017-Jan-18 20:33N 37°49' W 122°25'2 2.5
2017-Jan-18 19:33N 37°49' W 122°28'0 0.2
2017-Jan-18 18:33N 37°49' W 122°28'3 2.6
2017-Jan-18 17:33N 37°49' W 122°25'0 0.0
2017-Jan-18 16:33N 37°49' W 122°25'0 0.0
2017-Jan-18 15:33N 37°49' W 122°25'0 0.0
2017-Jan-18 14:32N 37°49' W 122°25'0 0.0
2017-Jan-18 00:33N 37°49' W 122°25'0 0.4
2017-Jan-17 23:33N 37°49' W 122°25'0 0.0
2017-Jan-17 22:33N 37°49' W 122°25'3 3.1
2017-Jan-17 21:33N 37°49' W 122°29'3 3.0
2017-Jan-17 20:33N 37°49' W 122°25'2 2.3
2017-Jan-17 19:33N 37°49' W 122°28'1 0.8
2017-Jan-17 18:33N 37°49' W 122°29'3 0.2
2017-Jan-17 03:33N 37°49' W 122°25'1 1.4
2017-Jan-17 02:33N 37°49' W 122°23'1 1.4
2017-Jan-17 01:34N 37°49' W 122°25'1 1.1
2017-Jan-17 00:34N 37°50' W 122°25'1 1.1
2017-Jan-16 23:34N 37°49' W 122°25'0 0.0
2017-Jan-16 22:33N 37°49' W 122°25'3 3.1
2017-Jan-16 21:34N 37°49' W 122°29'3 3.1
2017-Jan-16 20:33N 37°49' W 122°25'2 2.3
2017-Jan-16 19:34N 37°49' W 122°28'1 0.9
2017-Jan-16 18:33N 37°49' W 122°27'2 0.1
2017-Jan-16 03:33N 37°49' W 122°25'1 1.0
2017-Jan-16 02:33N 37°49' W 122°24'1 1.0
2017-Jan-16 01:33N 37°49' W 122°25'1 1.4
2017-Jan-16 00:33N 37°50' W 122°26'1 1.4
2017-Jan-15 23:33N 37°49' W 122°25'0 0.1
2017-Jan-15 22:33N 37°49' W 122°25'3 2.9
2017-Jan-15 21:33N 37°49' W 122°29'3 2.9
2017-Jan-15 20:33N 37°49' W 122°25'2 2.2
2017-Jan-15 19:34N 37°49' W 122°28'1 0.8
2017-Jan-15 18:33N 37°49' W 122°27'2 1.9
2017-Jan-15 17:33N 37°49' W 122°25'0 0.0
2017-Jan-15 03:31N 37°49' W 122°25'1 1.3
2017-Jan-15 02:33N 37°49' W 122°23'1 1.3
2017-Jan-15 01:33N 37°49' W 122°25'1 1.3
2017-Jan-15 00:34N 37°50' W 122°25'1 1.4
2017-Jan-14 23:33N 37°49' W 122°25'0 0.0
2017-Jan-14 22:33N 37°49' W 122°25'3 3.0
2017-Jan-14 21:33N 37°49' W 122°29'3 3.0
2017-Jan-14 20:33N 37°49' W 122°25'2 2.0
2017-Jan-14 19:33N 37°49' W 122°27'1 1.1
2017-Jan-14 18:33N 37°50' W 122°26'2 1.6
2017-Jan-14 17:33N 37°49' W 122°25'0 0.0
2017-Jan-14 03:33N 37°49' W 122°25'0 0.0
2017-Jan-13 23:33N 37°49' W 122°25'0 0.2
2017-Jan-13 22:33N 37°49' W 122°25'3 2.7
2017-Jan-13 21:33N 37°49' W 122°28'3 2.8
2017-Jan-13 20:33N 37°49' W 122°25'2 2.5
2017-Jan-13 19:33N 37°49' W 122°28'2 2.5
2017-Jan-13 18:33N 37°49' W 122°25'0 0.0
2017-Jan-13 17:33N 37°49' W 122°25'0 0.0
2017-Jan-13 03:33N 37°49' W 122°25'2 2.2
2017-Jan-13 02:34N 37°48' W 122°22'2 2.2
2017-Jan-13 01:33N 37°49' W 122°25'1 1.0
2017-Jan-13 00:33N 37°50' W 122°25'1 1.0
2017-Jan-12 23:33N 37°49' W 122°25'0 0.1
2017-Jan-12 22:33N 37°49' W 122°25'3 2.9
2017-Jan-12 21:34N 37°49' W 122°29'3 2.9
2017-Jan-12 20:34N 37°49' W 122°25'0 0.0
2017-Jan-12 19:33N 37°49' W 122°25'2 1.6
2017-Jan-12 18:34N 37°50' W 122°26'2 1.5
2017-Jan-12 17:33N 37°49' W 122°25'1 0.0
2017-Jan-12 00:33N 37°49' W 122°25'1 0.7
2017-Jan-11 23:33N 37°49' W 122°25'0 0.1
2017-Jan-11 22:33N 37°49' W 122°25'3 2.8
2017-Jan-11 21:33N 37°49' W 122°28'3 2.8
2017-Jan-11 20:33N 37°49' W 122°25'3 2.8
2017-Jan-11 19:33N 37°49' W 122°28'0 0.4
2017-Jan-11 18:33N 37°49' W 122°29'3 0.2
2017-Jan-11 00:33N 37°49' W 122°24'1 0.9
2017-Jan-10 23:34N 37°49' W 122°25'0 0.0
2017-Jan-10 22:34N 37°49' W 122°25'3 2.9
2017-Jan-10 21:33N 37°49' W 122°29'3 2.9
2017-Jan-10 20:33N 37°49' W 122°25'0 0.0
2017-Jan-10 19:34N 37°49' W 122°25'0 0.0
2017-Jan-10 18:32N 37°49' W 122°25'0 0.0
2017-Jan-10 03:31N 37°49' W 122°25'3 2.7
2017-Jan-10 02:33N 37°48' W 122°22'3 2.6
2017-Jan-10 01:33N 37°49' W 122°25'0 0.0
2017-Jan-10 00:33N 37°49' W 122°25'0 0.0
2017-Jan-09 23:33N 37°49' W 122°25'0 0.1
2017-Jan-09 22:33N 37°49' W 122°25'3 3.1
2017-Jan-09 21:33N 37°49' W 122°29'3 3.1
2017-Jan-09 20:33N 37°49' W 122°25'2 2.5
2017-Jan-09 19:33N 37°49' W 122°28'1 1.0
2017-Jan-09 18:33N 37°50' W 122°27'2 1.9
2017-Jan-09 17:33N 37°49' W 122°25'0 0.0
2017-Jan-09 03:32N 37°49' W 122°25'2 2.3
2017-Jan-09 02:33N 37°48' W 122°22'2 2.3
2017-Jan-09 01:33N 37°49' W 122°25'0 0.1
2017-Jan-09 00:34N 37°49' W 122°25'  

Dump ship's entire track history